sensor_id;sensor_type;location;lat;lon;timestamp;P1;durP1;ratioP1;P2;durP2;ratioP2
83282;SDS011;73190;50.780;5.658;2024-03-23T00:54:42;12.10;;;3.72;;
83282;SDS011;73190;50.780;5.658;2024-03-23T00:57:15;11.78;;;3.15;;
83282;SDS011;73190;50.780;5.658;2024-03-23T00:59:45;14.10;;;3.80;;
83282;SDS011;73190;50.780;5.658;2024-03-23T01:02:13;12.53;;;3.00;;
83282;SDS011;73190;50.780;5.658;2024-03-23T01:04:41;17.73;;;3.58;;
83282;SDS011;73190;50.780;5.658;2024-03-23T01:07:09;13.13;;;3.20;;
83282;SDS011;73190;50.780;5.658;2024-03-23T01:09:37;12.05;;;2.80;;
83282;SDS011;73190;50.780;5.658;2024-03-23T01:12:08;9.15;;;2.60;;
83282;SDS011;73190;50.780;5.658;2024-03-23T01:19:36;9.73;;;2.40;;
83282;SDS011;73190;50.780;5.658;2024-03-23T01:24:40;7.12;;;1.70;;
83282;SDS011;73190;50.780;5.658;2024-03-23T01:27:08;8.83;;;1.87;;
83282;SDS011;73190;50.780;5.658;2024-03-23T01:29:36;12.10;;;2.02;;
83282;SDS011;73190;50.780;5.658;2024-03-23T01:32:06;11.30;;;1.87;;
83282;SDS011;73190;50.780;5.658;2024-03-23T01:34:36;11.53;;;2.00;;
83282;SDS011;73190;50.780;5.658;2024-03-23T01:37:04;7.85;;;1.70;;
83282;SDS011;73190;50.780;5.658;2024-03-23T01:39:37;8.30;;;2.12;;
83282;SDS011;73190;50.780;5.658;2024-03-23T01:42:04;12.07;;;1.65;;
83282;SDS011;73190;50.780;5.658;2024-03-23T01:47:07;11.55;;;2.12;;
83282;SDS011;73190;50.780;5.658;2024-03-23T01:49:35;11.45;;;2.17;;
83282;SDS011;73190;50.780;5.658;2024-03-23T01:52:04;10.72;;;1.90;;
83282;SDS011;73190;50.780;5.658;2024-03-23T01:54:32;7.20;;;1.60;;
83282;SDS011;73190;50.780;5.658;2024-03-23T01:57:10;10.38;;;2.15;;
83282;SDS011;73190;50.780;5.658;2024-03-23T01:59:39;13.88;;;2.52;;
83282;SDS011;73190;50.780;5.658;2024-03-23T02:02:07;12.80;;;2.20;;
83282;SDS011;73190;50.780;5.658;2024-03-23T02:04:36;11.55;;;2.00;;
83282;SDS011;73190;50.780;5.658;2024-03-23T02:07:10;10.80;;;2.55;;
83282;SDS011;73190;50.780;5.658;2024-03-23T02:09:45;12.60;;;2.62;;
83282;SDS011;73190;50.780;5.658;2024-03-23T02:12:14;8.93;;;1.85;;
83282;SDS011;73190;50.780;5.658;2024-03-23T02:17:18;13.75;;;2.65;;
83282;SDS011;73190;50.780;5.658;2024-03-23T02:19:48;10.88;;;2.08;;
83282;SDS011;73190;50.780;5.658;2024-03-23T02:22:17;11.85;;;2.37;;
83282;SDS011;73190;50.780;5.658;2024-03-23T02:24:48;9.68;;;1.70;;
83282;SDS011;73190;50.780;5.658;2024-03-23T02:27:18;9.03;;;1.90;;
83282;SDS011;73190;50.780;5.658;2024-03-23T02:29:52;12.63;;;2.33;;
83282;SDS011;73190;50.780;5.658;2024-03-23T02:32:21;8.68;;;1.87;;
83282;SDS011;73190;50.780;5.658;2024-03-23T02:34:51;9.38;;;2.10;;
83282;SDS011;73190;50.780;5.658;2024-03-23T02:37:27;8.10;;;1.80;;
83282;SDS011;73190;50.780;5.658;2024-03-23T02:39:55;13.45;;;2.77;;
83282;SDS011;73190;50.780;5.658;2024-03-23T02:44:59;8.78;;;1.87;;
83282;SDS011;73190;50.780;5.658;2024-03-23T02:47:27;10.45;;;1.80;;
83282;SDS011;73190;50.780;5.658;2024-03-23T02:49:58;11.08;;;2.22;;
83282;SDS011;73190;50.780;5.658;2024-03-23T02:52:33;11.22;;;2.90;;
83282;SDS011;73190;50.780;5.658;2024-03-23T02:55:07;11.53;;;2.00;;
83282;SDS011;73190;50.780;5.658;2024-03-23T02:57:38;10.95;;;1.92;;
83282;SDS011;73190;50.780;5.658;2024-03-23T03:00:09;13.93;;;2.20;;
83282;SDS011;73190;50.780;5.658;2024-03-23T03:02:39;12.45;;;2.80;;
83282;SDS011;73190;50.780;5.658;2024-03-23T03:05:08;11.28;;;2.45;;
83282;SDS011;73190;50.780;5.658;2024-03-23T03:07:39;10.78;;;2.20;;
83282;SDS011;73190;50.780;5.658;2024-03-23T03:10:07;9.58;;;2.30;;
83282;SDS011;73190;50.780;5.658;2024-03-23T03:12:37;7.22;;;1.55;;
83282;SDS011;73190;50.780;5.658;2024-03-23T03:15:08;11.12;;;2.25;;
83282;SDS011;73190;50.780;5.658;2024-03-23T03:17:37;11.65;;;2.30;;
83282;SDS011;73190;50.780;5.658;2024-03-23T03:20:07;12.33;;;2.00;;
83282;SDS011;73190;50.780;5.658;2024-03-23T03:22:39;8.73;;;2.02;;
83282;SDS011;73190;50.780;5.658;2024-03-23T03:25:09;11.97;;;2.77;;
83282;SDS011;73190;50.780;5.658;2024-03-23T03:27:38;12.05;;;2.50;;
83282;SDS011;73190;50.780;5.658;2024-03-23T03:30:06;8.30;;;2.40;;
83282;SDS011;73190;50.780;5.658;2024-03-23T03:32:36;14.23;;;2.83;;
83282;SDS011;73190;50.780;5.658;2024-03-23T03:35:07;10.25;;;2.22;;
83282;SDS011;73190;50.780;5.658;2024-03-23T03:37:46;10.55;;;2.77;;
83282;SDS011;73190;50.780;5.658;2024-03-23T03:40:17;11.63;;;2.98;;
83282;SDS011;73190;50.780;5.658;2024-03-23T03:42:47;9.85;;;2.12;;
83282;SDS011;73190;50.780;5.658;2024-03-23T03:47:46;10.90;;;2.07;;
83282;SDS011;73190;50.780;5.658;2024-03-23T03:50:15;13.95;;;2.70;;
83282;SDS011;73190;50.780;5.658;2024-03-23T03:52:47;10.35;;;2.30;;
83282;SDS011;73190;50.780;5.658;2024-03-23T03:55:17;14.03;;;3.08;;
83282;SDS011;73190;50.780;5.658;2024-03-23T03:57:47;10.80;;;2.17;;
83282;SDS011;73190;50.780;5.658;2024-03-23T04:00:18;12.23;;;2.40;;
83282;SDS011;73190;50.780;5.658;2024-03-23T04:02:54;13.55;;;2.65;;
83282;SDS011;73190;50.780;5.658;2024-03-23T04:08:13;11.60;;;2.58;;
83282;SDS011;73190;50.780;5.658;2024-03-23T04:13:16;11.12;;;2.30;;
83282;SDS011;73190;50.780;5.658;2024-03-23T04:15:48;9.20;;;2.87;;
83282;SDS011;73190;50.780;5.658;2024-03-23T04:18:22;9.95;;;2.72;;
83282;SDS011;73190;50.780;5.658;2024-03-23T04:20:55;12.75;;;2.47;;
83282;SDS011;73190;50.780;5.658;2024-03-23T04:26:13;9.83;;;2.77;;
83282;SDS011;73190;50.780;5.658;2024-03-23T04:28:46;13.88;;;3.08;;
83282;SDS011;73190;50.780;5.658;2024-03-23T04:31:19;16.70;;;3.12;;
83282;SDS011;73190;50.780;5.658;2024-03-23T04:33:59;15.00;;;3.00;;
83282;SDS011;73190;50.780;5.658;2024-03-23T04:36:33;13.25;;;2.92;;
83282;SDS011;73190;50.780;5.658;2024-03-23T04:41:37;13.40;;;3.30;;
83282;SDS011;73190;50.780;5.658;2024-03-23T04:44:12;10.82;;;2.95;;
83282;SDS011;73190;50.780;5.658;2024-03-23T04:46:42;16.17;;;3.80;;
83282;SDS011;73190;50.780;5.658;2024-03-23T04:49:14;12.43;;;3.80;;
83282;SDS011;73190;50.780;5.658;2024-03-23T04:51:41;10.93;;;3.20;;
83282;SDS011;73190;50.780;5.658;2024-03-23T04:54:12;13.10;;;3.42;;
83282;SDS011;73190;50.780;5.658;2024-03-23T04:59:18;13.83;;;3.70;;
83282;SDS011;73190;50.780;5.658;2024-03-23T05:01:45;12.03;;;3.10;;
83282;SDS011;73190;50.780;5.658;2024-03-23T05:04:16;14.73;;;3.62;;
83282;SDS011;73190;50.780;5.658;2024-03-23T05:06:52;12.53;;;3.42;;
83282;SDS011;73190;50.780;5.658;2024-03-23T05:09:26;16.55;;;3.42;;
83282;SDS011;73190;50.780;5.658;2024-03-23T05:11:57;12.20;;;3.05;;
83282;SDS011;73190;50.780;5.658;2024-03-23T05:14:24;10.65;;;3.17;;
83282;SDS011;73190;50.780;5.658;2024-03-23T05:16:53;15.40;;;3.62;;
83282;SDS011;73190;50.780;5.658;2024-03-23T05:19:27;14.18;;;3.08;;
83282;SDS011;73190;50.780;5.658;2024-03-23T05:22:01;14.38;;;3.22;;
83282;SDS011;73190;50.780;5.658;2024-03-23T05:24:32;14.63;;;3.60;;
83282;SDS011;73190;50.780;5.658;2024-03-23T05:27:05;12.63;;;3.20;;
83282;SDS011;73190;50.780;5.658;2024-03-23T05:29:34;12.43;;;3.87;;
83282;SDS011;73190;50.780;5.658;2024-03-23T05:32:04;15.50;;;4.72;;
83282;SDS011;73190;50.780;5.658;2024-03-23T05:34:34;14.15;;;4.83;;
83282;SDS011;73190;50.780;5.658;2024-03-23T05:37:05;15.65;;;5.62;;
83282;SDS011;73190;50.780;5.658;2024-03-23T05:39:34;21.30;;;5.58;;
83282;SDS011;73190;50.780;5.658;2024-03-23T05:42:05;15.38;;;6.17;;
83282;SDS011;73190;50.780;5.658;2024-03-23T05:44:47;20.15;;;6.05;;
83282;SDS011;73190;50.780;5.658;2024-03-23T05:47:15;20.62;;;6.40;;
83282;SDS011;73190;50.780;5.658;2024-03-23T05:49:47;13.20;;;6.35;;
83282;SDS011;73190;50.780;5.658;2024-03-23T05:52:21;21.95;;;6.20;;
83282;SDS011;73190;50.780;5.658;2024-03-23T05:54:53;17.60;;;6.87;;
83282;SDS011;73190;50.780;5.658;2024-03-23T05:57:25;16.80;;;6.53;;
83282;SDS011;73190;50.780;5.658;2024-03-23T06:00:01;20.55;;;6.90;;
83282;SDS011;73190;50.780;5.658;2024-03-23T06:02:32;15.10;;;6.97;;
83282;SDS011;73190;50.780;5.658;2024-03-23T06:07:40;25.45;;;11.65;;
83282;SDS011;73190;50.780;5.658;2024-03-23T06:10:15;31.80;;;12.40;;
83282;SDS011;73190;50.780;5.658;2024-03-23T06:15:22;23.38;;;9.75;;
83282;SDS011;73190;50.780;5.658;2024-03-23T06:17:54;26.70;;;10.40;;
83282;SDS011;73190;50.780;5.658;2024-03-23T06:20:32;22.15;;;9.05;;
83282;SDS011;73190;50.780;5.658;2024-03-23T06:23:05;24.45;;;8.03;;
83282;SDS011;73190;50.780;5.658;2024-03-23T06:25:34;17.95;;;7.87;;
83282;SDS011;73190;50.780;5.658;2024-03-23T06:28:17;17.70;;;8.18;;
83282;SDS011;73190;50.780;5.658;2024-03-23T06:30:46;19.62;;;8.28;;
83282;SDS011;73190;50.780;5.658;2024-03-23T06:33:16;24.00;;;8.18;;
83282;SDS011;73190;50.780;5.658;2024-03-23T06:35:43;21.77;;;7.97;;
83282;SDS011;73190;50.780;5.658;2024-03-23T06:38:14;23.55;;;9.05;;
83282;SDS011;73190;50.780;5.658;2024-03-23T06:40:42;22.75;;;8.43;;
83282;SDS011;73190;50.780;5.658;2024-03-23T06:43:11;20.43;;;8.05;;
83282;SDS011;73190;50.780;5.658;2024-03-23T06:45:40;17.10;;;7.55;;
83282;SDS011;73190;50.780;5.658;2024-03-23T06:48:08;21.48;;;8.20;;
83282;SDS011;73190;50.780;5.658;2024-03-23T06:50:36;20.70;;;8.80;;
83282;SDS011;73190;50.780;5.658;2024-03-23T06:53:03;20.15;;;8.70;;
83282;SDS011;73190;50.780;5.658;2024-03-23T06:55:31;27.00;;;9.23;;
83282;SDS011;73190;50.780;5.658;2024-03-23T06:57:59;19.82;;;8.75;;
83282;SDS011;73190;50.780;5.658;2024-03-23T07:00:27;25.00;;;9.03;;
83282;SDS011;73190;50.780;5.658;2024-03-23T07:02:56;19.92;;;8.65;;
83282;SDS011;73190;50.780;5.658;2024-03-23T07:05:28;21.27;;;8.28;;
83282;SDS011;73190;50.780;5.658;2024-03-23T07:08:01;18.07;;;8.38;;
83282;SDS011;73190;50.780;5.658;2024-03-23T07:13:02;17.85;;;7.08;;
83282;SDS011;73190;50.780;5.658;2024-03-23T07:15:30;17.90;;;7.42;;
83282;SDS011;73190;50.780;5.658;2024-03-23T07:17:57;17.57;;;5.90;;
83282;SDS011;73190;50.780;5.658;2024-03-23T07:20:25;12.78;;;5.47;;
83282;SDS011;73190;50.780;5.658;2024-03-23T07:22:53;15.10;;;4.72;;
83282;SDS011;73190;50.780;5.658;2024-03-23T07:25:21;21.42;;;5.22;;
83282;SDS011;73190;50.780;5.658;2024-03-23T07:27:52;11.85;;;4.08;;
83282;SDS011;73190;50.780;5.658;2024-03-23T07:30:21;17.65;;;4.35;;
83282;SDS011;73190;50.780;5.658;2024-03-23T07:32:50;17.27;;;4.72;;
83282;SDS011;73190;50.780;5.658;2024-03-23T07:35:18;13.15;;;3.85;;
83282;SDS011;73190;50.780;5.658;2024-03-23T07:37:45;13.98;;;4.35;;
83282;SDS011;73190;50.780;5.658;2024-03-23T07:40:13;10.35;;;3.65;;
83282;SDS011;73190;50.780;5.658;2024-03-23T07:42:41;12.35;;;5.85;;
83282;SDS011;73190;50.780;5.658;2024-03-23T07:45:09;13.08;;;5.22;;
83282;SDS011;73190;50.780;5.658;2024-03-23T07:47:37;14.28;;;4.00;;
83282;SDS011;73190;50.780;5.658;2024-03-23T07:50:06;18.50;;;4.15;;
83282;SDS011;73190;50.780;5.658;2024-03-23T07:55:02;16.73;;;3.83;;
83282;SDS011;73190;50.780;5.658;2024-03-23T07:57:30;13.32;;;2.70;;
83282;SDS011;73190;50.780;5.658;2024-03-23T07:59:57;14.00;;;3.30;;
83282;SDS011;73190;50.780;5.658;2024-03-23T08:02:26;20.35;;;4.58;;
83282;SDS011;73190;50.780;5.658;2024-03-23T08:04:55;10.20;;;2.98;;
83282;SDS011;73190;50.780;5.658;2024-03-23T08:07:23;14.50;;;3.15;;
83282;SDS011;73190;50.780;5.658;2024-03-23T08:09:51;15.43;;;3.10;;
83282;SDS011;73190;50.780;5.658;2024-03-23T08:12:18;12.65;;;3.50;;
83282;SDS011;73190;50.780;5.658;2024-03-23T08:14:46;24.07;;;3.70;;
83282;SDS011;73190;50.780;5.658;2024-03-23T08:17:14;16.37;;;3.92;;
83282;SDS011;73190;50.780;5.658;2024-03-23T08:19:41;17.15;;;3.10;;
83282;SDS011;73190;50.780;5.658;2024-03-23T08:22:08;14.70;;;2.90;;
83282;SDS011;73190;50.780;5.658;2024-03-23T08:24:36;17.20;;;3.42;;
83282;SDS011;73190;50.780;5.658;2024-03-23T08:27:04;16.45;;;3.42;;
83282;SDS011;73190;50.780;5.658;2024-03-23T08:29:32;11.97;;;3.20;;
83282;SDS011;73190;50.780;5.658;2024-03-23T08:32:00;16.62;;;3.10;;
83282;SDS011;73190;50.780;5.658;2024-03-23T08:34:27;13.00;;;3.22;;
83282;SDS011;73190;50.780;5.658;2024-03-23T08:36:55;11.55;;;2.83;;
83282;SDS011;73190;50.780;5.658;2024-03-23T08:39:23;22.13;;;3.45;;
83282;SDS011;73190;50.780;5.658;2024-03-23T08:41:51;12.80;;;3.12;;
83282;SDS011;73190;50.780;5.658;2024-03-23T08:44:19;22.10;;;3.80;;
83282;SDS011;73190;50.780;5.658;2024-03-23T08:46:48;19.00;;;3.35;;
83282;SDS011;73190;50.780;5.658;2024-03-23T08:49:17;13.88;;;2.95;;
83282;SDS011;73190;50.780;5.658;2024-03-23T08:51:49;3.90;;;0.93;;
83282;SDS011;73190;50.780;5.658;2024-03-23T08:54:17;1.72;;;0.40;;
83282;SDS011;73190;50.780;5.658;2024-03-23T08:56:46;2.75;;;0.55;;
83282;SDS011;73190;50.780;5.658;2024-03-23T08:59:14;1.80;;;0.60;;
83282;SDS011;73190;50.780;5.658;2024-03-23T09:01:43;5.87;;;0.93;;
83282;SDS011;73190;50.780;5.658;2024-03-23T09:04:16;7.00;;;1.10;;
83282;SDS011;73190;50.780;5.658;2024-03-23T09:06:50;5.83;;;1.10;;
83282;SDS011;73190;50.780;5.658;2024-03-23T09:09:18;9.83;;;1.30;;
83282;SDS011;73190;50.780;5.658;2024-03-23T09:11:47;7.95;;;1.57;;
83282;SDS011;73190;50.780;5.658;2024-03-23T09:14:16;6.28;;;1.20;;
83282;SDS011;73190;50.780;5.658;2024-03-23T09:16:49;7.37;;;1.55;;
83282;SDS011;73190;50.780;5.658;2024-03-23T09:19:23;10.18;;;1.90;;
83282;SDS011;73190;50.780;5.658;2024-03-23T09:21:53;9.05;;;1.82;;
83282;SDS011;73190;50.780;5.658;2024-03-23T09:24:22;9.68;;;2.20;;
83282;SDS011;73190;50.780;5.658;2024-03-23T09:26:51;10.88;;;2.52;;
83282;SDS011;73190;50.780;5.658;2024-03-23T09:32:07;12.53;;;2.77;;
83282;SDS011;73190;50.780;5.658;2024-03-23T09:34:36;15.38;;;2.90;;
83282;SDS011;73190;50.780;5.658;2024-03-23T09:37:05;11.83;;;2.75;;
83282;SDS011;73190;50.780;5.658;2024-03-23T09:39:34;12.33;;;2.92;;
83282;SDS011;73190;50.780;5.658;2024-03-23T09:42:13;16.60;;;3.60;;
83282;SDS011;73190;50.780;5.658;2024-03-23T09:44:56;12.75;;;2.95;;
83282;SDS011;73190;50.780;5.658;2024-03-23T09:47:27;13.43;;;2.95;;
83282;SDS011;73190;50.780;5.658;2024-03-23T09:50:01;24.82;;;3.35;;
83282;SDS011;73190;50.780;5.658;2024-03-23T09:57:29;10.88;;;2.47;;
83282;SDS011;73190;50.780;5.658;2024-03-23T09:59:57;10.98;;;2.00;;
83282;SDS011;73190;50.780;5.658;2024-03-23T10:02:26;13.78;;;3.05;;
83282;SDS011;73190;50.780;5.658;2024-03-23T10:04:58;12.15;;;2.52;;
83282;SDS011;73190;50.780;5.658;2024-03-23T10:09:56;12.97;;;2.80;;
83282;SDS011;73190;50.780;5.658;2024-03-23T10:12:27;11.97;;;2.77;;
83282;SDS011;73190;50.780;5.658;2024-03-23T10:15:07;13.18;;;2.62;;
83282;SDS011;73190;50.780;5.658;2024-03-23T10:17:34;11.00;;;2.15;;
83282;SDS011;73190;50.780;5.658;2024-03-23T10:20:06;13.43;;;2.22;;
83282;SDS011;73190;50.780;5.658;2024-03-23T10:22:36;8.95;;;2.47;;
83282;SDS011;73190;50.780;5.658;2024-03-23T10:27:42;10.58;;;2.72;;
83282;SDS011;73190;50.780;5.658;2024-03-23T10:35:45;12.88;;;2.05;;
83282;SDS011;73190;50.780;5.658;2024-03-23T10:38:19;10.20;;;2.25;;
83282;SDS011;73190;50.780;5.658;2024-03-23T10:40:54;10.32;;;2.35;;
83282;SDS011;73190;50.780;5.658;2024-03-23T10:43:32;10.00;;;1.85;;
83282;SDS011;73190;50.780;5.658;2024-03-23T10:46:02;6.87;;;1.80;;
83282;SDS011;73190;50.780;5.658;2024-03-23T10:48:31;10.28;;;1.87;;
83282;SDS011;73190;50.780;5.658;2024-03-23T10:50:59;8.35;;;2.02;;
83282;SDS011;73190;50.780;5.658;2024-03-23T10:53:27;6.62;;;1.60;;
83282;SDS011;73190;50.780;5.658;2024-03-23T10:55:56;6.55;;;1.70;;
83282;SDS011;73190;50.780;5.658;2024-03-23T10:58:28;11.08;;;2.70;;
83282;SDS011;73190;50.780;5.658;2024-03-23T11:00:55;10.95;;;2.27;;
83282;SDS011;73190;50.780;5.658;2024-03-23T11:03:30;7.67;;;2.02;;
83282;SDS011;73190;50.780;5.658;2024-03-23T11:06:05;8.30;;;2.15;;
83282;SDS011;73190;50.780;5.658;2024-03-23T11:08:34;10.55;;;1.98;;
83282;SDS011;73190;50.780;5.658;2024-03-23T11:11:20;7.30;;;1.82;;
83282;SDS011;73190;50.780;5.658;2024-03-23T11:13:50;8.13;;;1.87;;
83282;SDS011;73190;50.780;5.658;2024-03-23T11:16:26;7.87;;;1.95;;
83282;SDS011;73190;50.780;5.658;2024-03-23T11:21:56;10.82;;;3.00;;
83282;SDS011;73190;50.780;5.658;2024-03-23T11:24:23;9.78;;;2.25;;
83282;SDS011;73190;50.780;5.658;2024-03-23T11:26:51;12.55;;;2.35;;
83282;SDS011;73190;50.780;5.658;2024-03-23T11:29:18;8.30;;;2.15;;
83282;SDS011;73190;50.780;5.658;2024-03-23T11:31:47;14.10;;;2.83;;
83282;SDS011;73190;50.780;5.658;2024-03-23T11:34:18;10.48;;;2.52;;
83282;SDS011;73190;50.780;5.658;2024-03-23T11:36:47;9.75;;;2.25;;
83282;SDS011;73190;50.780;5.658;2024-03-23T11:39:19;7.28;;;1.82;;
83282;SDS011;73190;50.780;5.658;2024-03-23T11:41:47;9.35;;;1.70;;
83282;SDS011;73190;50.780;5.658;2024-03-23T11:44:19;7.00;;;1.40;;
83282;SDS011;73190;50.780;5.658;2024-03-23T11:46:51;9.48;;;1.70;;
83282;SDS011;73190;50.780;5.658;2024-03-23T11:49:25;7.10;;;1.47;;
83282;SDS011;73190;50.780;5.658;2024-03-23T11:51:54;8.23;;;1.45;;
83282;SDS011;73190;50.780;5.658;2024-03-23T11:54:23;8.58;;;2.00;;
83282;SDS011;73190;50.780;5.658;2024-03-23T11:56:58;8.83;;;1.90;;
83282;SDS011;73190;50.780;5.658;2024-03-23T12:02:10;6.97;;;1.82;;
83282;SDS011;73190;50.780;5.658;2024-03-23T12:04:40;6.50;;;1.42;;
83282;SDS011;73190;50.780;5.658;2024-03-23T12:07:13;8.65;;;1.70;;
83282;SDS011;73190;50.780;5.658;2024-03-23T12:10:02;8.55;;;2.33;;
83282;SDS011;73190;50.780;5.658;2024-03-23T12:12:32;9.85;;;2.15;;
83282;SDS011;73190;50.780;5.658;2024-03-23T12:15:07;6.75;;;1.87;;
83282;SDS011;73190;50.780;5.658;2024-03-23T12:17:35;7.40;;;1.50;;
83282;SDS011;73190;50.780;5.658;2024-03-23T12:20:02;9.55;;;2.30;;
83282;SDS011;73190;50.780;5.658;2024-03-23T12:22:31;7.95;;;1.85;;
83282;SDS011;73190;50.780;5.658;2024-03-23T12:25:01;6.15;;;1.55;;
83282;SDS011;73190;50.780;5.658;2024-03-23T12:27:28;7.10;;;1.50;;
83282;SDS011;73190;50.780;5.658;2024-03-23T12:29:56;7.35;;;1.85;;
83282;SDS011;73190;50.780;5.658;2024-03-23T12:32:24;7.50;;;2.00;;
83282;SDS011;73190;50.780;5.658;2024-03-23T12:34:51;7.80;;;1.87;;
83282;SDS011;73190;50.780;5.658;2024-03-23T12:37:19;7.42;;;1.62;;
83282;SDS011;73190;50.780;5.658;2024-03-23T12:39:49;7.08;;;2.00;;
83282;SDS011;73190;50.780;5.658;2024-03-23T12:42:16;6.92;;;1.52;;
83282;SDS011;73190;50.780;5.658;2024-03-23T12:44:44;7.45;;;1.52;;
83282;SDS011;73190;50.780;5.658;2024-03-23T12:47:12;6.85;;;1.42;;
83282;SDS011;73190;50.780;5.658;2024-03-23T12:49:40;7.60;;;1.67;;
83282;SDS011;73190;50.780;5.658;2024-03-23T12:52:08;8.10;;;1.85;;
83282;SDS011;73190;50.780;5.658;2024-03-23T12:54:35;6.22;;;1.42;;
83282;SDS011;73190;50.780;5.658;2024-03-23T12:57:03;6.05;;;1.50;;
83282;SDS011;73190;50.780;5.658;2024-03-23T12:59:30;6.10;;;1.40;;
83282;SDS011;73190;50.780;5.658;2024-03-23T13:02:00;6.50;;;1.40;;
83282;SDS011;73190;50.780;5.658;2024-03-23T13:04:27;4.95;;;1.00;;
83282;SDS011;73190;50.780;5.658;2024-03-23T13:06:55;3.42;;;1.00;;
83282;SDS011;73190;50.780;5.658;2024-03-23T13:09:22;3.08;;;0.95;;
83282;SDS011;73190;50.780;5.658;2024-03-23T13:11:50;7.95;;;1.10;;
83282;SDS011;73190;50.780;5.658;2024-03-23T13:14:17;5.70;;;1.12;;
83282;SDS011;73190;50.780;5.658;2024-03-23T13:16:46;4.58;;;1.47;;
83282;SDS011;73190;50.780;5.658;2024-03-23T13:19:14;4.60;;;0.88;;
83282;SDS011;73190;50.780;5.658;2024-03-23T13:21:41;8.08;;;0.90;;
83282;SDS011;73190;50.780;5.658;2024-03-23T13:24:09;5.78;;;0.90;;
83282;SDS011;73190;50.780;5.658;2024-03-23T13:26:37;6.42;;;1.40;;
83282;SDS011;73190;50.780;5.658;2024-03-23T13:29:05;3.75;;;0.95;;
83282;SDS011;73190;50.780;5.658;2024-03-23T13:31:32;5.78;;;1.20;;
83282;SDS011;73190;50.780;5.658;2024-03-23T13:34:00;4.80;;;0.95;;
83282;SDS011;73190;50.780;5.658;2024-03-23T13:36:27;5.67;;;1.10;;
83282;SDS011;73190;50.780;5.658;2024-03-23T13:38:55;4.35;;;0.78;;
83282;SDS011;73190;50.780;5.658;2024-03-23T13:41:23;2.25;;;0.37;;
83282;SDS011;73190;50.780;5.658;2024-03-23T13:43:51;2.40;;;0.30;;
83282;SDS011;73190;50.780;5.658;2024-03-23T13:46:19;3.05;;;0.60;;
83282;SDS011;73190;50.780;5.658;2024-03-23T13:48:46;3.52;;;0.53;;
83282;SDS011;73190;50.780;5.658;2024-03-23T13:51:14;3.60;;;0.95;;
83282;SDS011;73190;50.780;5.658;2024-03-23T13:53:41;4.92;;;0.70;;
83282;SDS011;73190;50.780;5.658;2024-03-23T13:56:09;4.10;;;0.80;;
83282;SDS011;73190;50.780;5.658;2024-03-23T13:58:36;5.42;;;0.68;;
83282;SDS011;73190;50.780;5.658;2024-03-23T14:01:05;4.03;;;0.90;;
83282;SDS011;73190;50.780;5.658;2024-03-23T14:03:32;2.58;;;0.50;;
83282;SDS011;73190;50.780;5.658;2024-03-23T14:06:00;9.55;;;0.68;;
83282;SDS011;73190;50.780;5.658;2024-03-23T14:08:29;3.02;;;0.70;;
83282;SDS011;73190;50.780;5.658;2024-03-23T14:10:58;4.27;;;0.77;;
83282;SDS011;73190;50.780;5.658;2024-03-23T14:13:25;4.90;;;0.85;;
83282;SDS011;73190;50.780;5.658;2024-03-23T14:15:54;6.42;;;1.20;;
83282;SDS011;73190;50.780;5.658;2024-03-23T14:18:22;3.00;;;0.82;;
83282;SDS011;73190;50.780;5.658;2024-03-23T14:20:50;3.37;;;0.60;;
83282;SDS011;73190;50.780;5.658;2024-03-23T14:23:18;3.12;;;0.75;;
83282;SDS011;73190;50.780;5.658;2024-03-23T14:25:45;9.53;;;1.15;;
83282;SDS011;73190;50.780;5.658;2024-03-23T14:28:14;7.15;;;1.20;;
83282;SDS011;73190;50.780;5.658;2024-03-23T14:30:43;7.87;;;1.10;;
83282;SDS011;73190;50.780;5.658;2024-03-23T14:33:11;5.58;;;0.70;;
83282;SDS011;73190;50.780;5.658;2024-03-23T14:35:38;5.15;;;1.00;;
83282;SDS011;73190;50.780;5.658;2024-03-23T14:38:06;7.83;;;1.55;;
83282;SDS011;73190;50.780;5.658;2024-03-23T14:40:34;5.40;;;0.98;;
83282;SDS011;73190;50.780;5.658;2024-03-23T14:43:02;4.50;;;0.90;;
83282;SDS011;73190;50.780;5.658;2024-03-23T14:45:30;4.70;;;0.80;;
83282;SDS011;73190;50.780;5.658;2024-03-23T14:47:57;4.85;;;0.80;;
83282;SDS011;73190;50.780;5.658;2024-03-23T14:50:26;10.85;;;2.37;;
83282;SDS011;73190;50.780;5.658;2024-03-23T14:52:53;4.35;;;0.90;;
83282;SDS011;73190;50.780;5.658;2024-03-23T14:55:22;3.67;;;0.90;;
83282;SDS011;73190;50.780;5.658;2024-03-23T14:57:49;6.35;;;1.02;;
83282;SDS011;73190;50.780;5.658;2024-03-23T15:00:17;5.50;;;0.98;;
83282;SDS011;73190;50.780;5.658;2024-03-23T15:02:45;7.08;;;1.00;;
83282;SDS011;73190;50.780;5.658;2024-03-23T15:05:12;5.95;;;1.50;;
83282;SDS011;73190;50.780;5.658;2024-03-23T15:07:40;5.00;;;0.60;;
83282;SDS011;73190;50.780;5.658;2024-03-23T15:10:07;5.60;;;1.10;;
83282;SDS011;73190;50.780;5.658;2024-03-23T15:12:36;7.35;;;1.15;;
83282;SDS011;73190;50.780;5.658;2024-03-23T15:15:03;6.17;;;1.82;;
83282;SDS011;73190;50.780;5.658;2024-03-23T15:17:31;4.42;;;0.95;;
83282;SDS011;73190;50.780;5.658;2024-03-23T15:20:00;6.55;;;0.85;;
83282;SDS011;73190;50.780;5.658;2024-03-23T15:22:28;6.62;;;1.27;;
83282;SDS011;73190;50.780;5.658;2024-03-23T15:24:57;2.25;;;0.85;;
83282;SDS011;73190;50.780;5.658;2024-03-23T15:27:24;6.53;;;1.00;;
83282;SDS011;73190;50.780;5.658;2024-03-23T15:29:52;6.28;;;0.90;;
83282;SDS011;73190;50.780;5.658;2024-03-23T15:32:19;7.55;;;1.27;;
83282;SDS011;73190;50.780;5.658;2024-03-23T15:34:47;4.90;;;0.80;;
83282;SDS011;73190;50.780;5.658;2024-03-23T15:37:15;6.22;;;1.00;;
83282;SDS011;73190;50.780;5.658;2024-03-23T15:39:43;4.80;;;1.40;;
83282;SDS011;73190;50.780;5.658;2024-03-23T15:42:11;5.97;;;0.90;;
83282;SDS011;73190;50.780;5.658;2024-03-23T15:44:38;3.20;;;0.68;;
83282;SDS011;73190;50.780;5.658;2024-03-23T15:47:06;6.78;;;1.05;;
83282;SDS011;73190;50.780;5.658;2024-03-23T15:49:33;8.13;;;1.27;;
83282;SDS011;73190;50.780;5.658;2024-03-23T15:52:02;7.47;;;1.50;;
83282;SDS011;73190;50.780;5.658;2024-03-23T15:54:29;6.65;;;1.75;;
83282;SDS011;73190;50.780;5.658;2024-03-23T15:56:57;4.85;;;0.62;;
83282;SDS011;73190;50.780;5.658;2024-03-23T15:59:24;4.45;;;0.90;;
83282;SDS011;73190;50.780;5.658;2024-03-23T16:01:52;6.00;;;0.93;;
83282;SDS011;73190;50.780;5.658;2024-03-23T16:04:19;4.30;;;0.70;;
83282;SDS011;73190;50.780;5.658;2024-03-23T16:06:47;3.60;;;0.72;;
83282;SDS011;73190;50.780;5.658;2024-03-23T16:09:14;4.47;;;0.75;;
83282;SDS011;73190;50.780;5.658;2024-03-23T16:11:42;3.90;;;0.75;;
83282;SDS011;73190;50.780;5.658;2024-03-23T16:14:09;3.87;;;0.50;;
83282;SDS011;73190;50.780;5.658;2024-03-23T16:16:38;4.83;;;0.62;;
83282;SDS011;73190;50.780;5.658;2024-03-23T16:19:06;3.67;;;0.68;;
83282;SDS011;73190;50.780;5.658;2024-03-23T16:21:34;4.95;;;0.80;;
83282;SDS011;73190;50.780;5.658;2024-03-23T16:24:02;4.20;;;0.68;;
83282;SDS011;73190;50.780;5.658;2024-03-23T16:26:30;5.17;;;0.90;;
83282;SDS011;73190;50.780;5.658;2024-03-23T16:28:57;3.47;;;0.88;;
83282;SDS011;73190;50.780;5.658;2024-03-23T16:31:30;5.40;;;1.30;;
83282;SDS011;73190;50.780;5.658;2024-03-23T16:33:54;3.95;;;0.75;;
83282;SDS011;73190;50.780;5.658;2024-03-23T16:36:21;4.30;;;0.75;;
83282;SDS011;73190;50.780;5.658;2024-03-23T16:38:50;8.60;;;2.50;;
83282;SDS011;73190;50.780;5.658;2024-03-23T16:41:18;6.20;;;0.90;;
83282;SDS011;73190;50.780;5.658;2024-03-23T16:43:45;3.52;;;0.78;;
83282;SDS011;73190;50.780;5.658;2024-03-23T16:46:13;6.03;;;1.90;;
83282;SDS011;73190;50.780;5.658;2024-03-23T16:48:42;5.47;;;1.20;;
83282;SDS011;73190;50.780;5.658;2024-03-23T16:51:11;5.10;;;1.42;;
83282;SDS011;73190;50.780;5.658;2024-03-23T16:53:39;5.53;;;1.25;;